Time;durP1;ratioP1;P1;durP2;ratioP2;P2;SDS_P1;SDS_P2;PMS_P1;PMS_P2;Temp;Humidity;BMP_temperature;BMP_pressure;BME280_temperature;BME280_humidity;BME280_pressure;Samples;Min_cycle;Max_cycle;Signal;HPM_P1;HPM_P2
2023/06/15 00:01:24;;;;;;;2.50;2.30;;;19.70;52.40;;;;;;5037382;28;20185;-76
2023/06/15 00:03:51;;;;;;;3.42;2.30;;;19.60;52.50;;;;;;5052011;28;20327;-75
2023/06/15 00:06:19;;;;;;;2.67;2.10;;;19.60;52.50;;;;;;5056599;28;20342;-71
2023/06/15 00:08:45;;;;;;;2.45;2.25;;;19.50;52.60;;;;;;5032619;28;20204;-77
2023/06/15 00:11:11;;;;;;;3.85;2.05;;;19.40;52.30;;;;;;5052760;28;20177;-76
2023/06/15 00:13:37;;;;;;;2.35;2.15;;;19.40;52.50;;;;;;5055885;28;20204;-75
2023/06/15 00:16:03;;;;;;;2.38;1.95;;;19.30;52.50;;;;;;5055979;28;20188;-77
2023/06/15 00:18:28;;;;;;;3.25;2.00;;;19.30;53.00;;;;;;5035975;28;20178;-77
2023/06/15 00:20:56;;;;;;;3.15;2.53;;;19.20;52.80;;;;;;5048036;28;20229;-77
2023/06/15 00:23:26;;;;;;;3.75;2.03;;;19.20;52.90;;;;;;5038603;28;20222;-77
2023/06/15 00:25:53;;;;;;;3.20;2.13;;;19.20;53.10;;;;;;5029301;28;20185;-77
2023/06/15 00:28:20;;;;;;;4.05;2.10;;;19.20;53.20;;;;;;5037334;28;20260;-76
2023/06/15 00:30:48;;;;;;;2.97;2.10;;;19.20;53.30;;;;;;5056088;28;20173;-77
2023/06/15 00:33:15;;;;;;;2.33;1.90;;;19.20;53.80;;;;;;5037033;28;20178;-76
2023/06/15 00:35:46;;;;;;;2.20;2.00;;;19.20;53.50;;;;;;5053927;28;20188;-77
2023/06/15 00:38:14;;;;;;;2.60;2.20;;;19.20;53.50;;;;;;5036886;28;20321;-77
2023/06/15 00:40:40;;;;;;;2.58;2.28;;;19.10;53.50;;;;;;5039565;28;20182;-75
2023/06/15 00:43:10;;;;;;;2.83;2.28;;;19.10;53.40;;;;;;5039130;28;20198;-76
2023/06/15 00:45:38;;;;;;;2.30;2.00;;;19.10;53.70;;;;;;5055536;28;20177;-77
2023/06/15 00:48:06;;;;;;;2.20;2.00;;;19.00;53.50;;;;;;5035065;28;20178;-76
2023/06/15 00:50:32;;;;;;;1.90;1.77;;;19.00;53.70;;;;;;5053981;28;20212;-72
2023/06/15 00:53:03;;;;;;;2.30;2.10;;;18.90;53.70;;;;;;5054882;28;20170;-74
2023/06/15 00:55:31;;;;;;;2.60;1.98;;;18.90;53.90;;;;;;5048408;28;20178;-78
2023/06/15 00:58:01;;;;;;;4.28;2.10;;;18.90;54.20;;;;;;5054535;28;20176;-77
2023/06/15 01:00:29;;;;;;;2.53;2.17;;;18.90;54.70;;;;;;5055639;28;20231;-77
2023/06/15 01:02:56;;;;;;;2.30;2.10;;;18.90;54.40;;;;;;5032792;28;20186;-77
2023/06/15 01:05:23;;;;;;;3.13;2.20;;;18.80;54.30;;;;;;5032780;28;20173;-77
2023/06/15 01:07:51;;;;;;;2.80;2.25;;;18.70;54.40;;;;;;5055057;28;20213;-78
2023/06/15 01:10:23;;;;;;;2.47;2.17;;;18.70;54.70;;;;;;5054651;28;20288;-77
2023/06/15 01:12:54;;;;;;;3.28;2.17;;;18.70;54.90;;;;;;5055439;28;20172;-77
2023/06/15 01:15:25;;;;;;;2.75;2.28;;;18.60;54.80;;;;;;5054721;28;20177;-77
2023/06/15 01:17:57;;;;;;;2.20;2.00;;;18.50;55.00;;;;;;5054376;28;20201;-75
2023/06/15 01:20:40;;;;;;;2.42;2.20;;;18.50;55.20;;;;;;5038821;28;20165;-77
2023/06/15 01:23:40;;;;;;;2.38;2.00;;;18.50;56.00;;;;;;5038313;28;20189;-76
2023/06/15 01:26:13;;;;;;;3.45;2.30;;;18.40;56.30;;;;;;5054578;28;20189;-76
2023/06/15 01:28:47;;;;;;;3.25;2.30;;;18.40;55.40;;;;;;5037979;28;20201;-77
2023/06/15 01:31:17;;;;;;;3.22;2.17;;;18.30;55.60;;;;;;5018767;28;20221;-74
2023/06/15 01:33:51;;;;;;;2.78;2.38;;;18.30;55.90;;;;;;5032281;28;20185;-76
2023/06/15 01:36:20;;;;;;;3.35;2.50;;;18.20;56.90;;;;;;5034390;28;20181;-76
2023/06/15 01:38:54;;;;;;;2.63;2.05;;;18.10;56.00;;;;;;5023542;28;20201;-77
2023/06/15 01:41:25;;;;;;;2.30;2.05;;;18.10;56.40;;;;;;5033342;28;20212;-77
2023/06/15 01:43:52;;;;;;;2.50;1.92;;;18.00;56.20;;;;;;5053836;28;20239;-75
2023/06/15 01:46:24;;;;;;;2.45;2.03;;;18.00;56.30;;;;;;5038095;28;20173;-77
2023/06/15 01:48:50;;;;;;;2.45;2.10;;;17.90;56.60;;;;;;5038152;28;20205;-77
2023/06/15 01:51:19;;;;;;;2.33;2.00;;;17.90;56.40;;;;;;5054303;28;20180;-77
2023/06/15 01:53:47;;;;;;;2.80;2.17;;;17.90;57.30;;;;;;5054538;28;20304;-76
2023/06/15 01:56:17;;;;;;;3.30;2.35;;;17.90;57.00;;;;;;5053955;28;20181;-76
2023/06/15 01:58:42;;;;;;;2.33;2.13;;;17.90;57.20;;;;;;5052727;28;20185;-77
2023/06/15 02:01:13;;;;;;;2.80;2.38;;;17.80;56.70;;;;;;5026864;28;20190;-75
2023/06/15 02:03:40;;;;;;;2.28;1.98;;;17.80;56.90;;;;;;5054507;28;20173;-76
2023/06/15 02:06:06;;;;;;;2.72;2.30;;;17.80;56.80;;;;;;5026863;28;20392;-75
2023/06/15 02:08:32;;;;;;;2.30;2.10;;;17.80;56.90;;;;;;5033651;28;20313;-74
2023/06/15 02:10:58;;;;;;;2.50;2.20;;;17.80;57.00;;;;;;5036669;28;20177;-77
2023/06/15 02:13:23;;;;;;;2.63;2.08;;;17.80;57.20;;;;;;5031530;28;20176;-77
2023/06/15 02:15:49;;;;;;;3.17;2.13;;;17.70;57.10;;;;;;5031678;28;20253;-78
2023/06/15 02:18:16;;;;;;;2.88;2.17;;;17.80;57.20;;;;;;5041325;28;20173;-78
2023/06/15 02:20:50;;;;;;;2.92;2.10;;;17.70;57.40;;;;;;5053894;28;20201;-77
2023/06/15 02:23:15;;;;;;;3.40;2.20;;;17.70;57.60;;;;;;5036683;28;20200;-76
2023/06/15 02:25:43;;;;;;;2.47;2.28;;;17.70;57.40;;;;;;5053663;28;20169;-77
2023/06/15 02:28:09;;;;;;;2.67;2.40;;;17.70;57.60;;;;;;5033809;28;20198;-76
2023/06/15 02:30:35;;;;;;;3.22;2.20;;;17.50;57.40;;;;;;5028976;28;20185;-77
2023/06/15 02:33:04;;;;;;;2.30;2.10;;;17.60;58.20;;;;;;5053946;28;20201;-74
2023/06/15 02:35:29;;;;;;;2.95;2.28;;;17.50;58.10;;;;;;5022732;28;20314;-75
2023/06/15 02:37:55;;;;;;;3.03;2.40;;;17.50;57.80;;;;;;5053115;28;20269;-77
2023/06/15 02:40:21;;;;;;;2.60;2.05;;;17.50;58.10;;;;;;5033960;28;20312;-74
2023/06/15 02:42:47;;;;;;;2.33;2.13;;;17.50;58.40;;;;;;5051357;28;20201;-75
2023/06/15 02:45:17;;;;;;;2.60;2.38;;;17.40;58.60;;;;;;5062276;28;20189;-77
2023/06/15 02:47:44;;;;;;;3.58;2.60;;;17.30;58.90;;;;;;5037329;28;20264;-77
2023/06/15 02:50:12;;;;;;;2.50;2.28;;;17.30;59.30;;;;;;5052907;28;20213;-77
2023/06/15 02:52:38;;;;;;;3.35;2.20;;;17.20;59.20;;;;;;5052322;28;20177;-74
2023/06/15 02:55:07;;;;;;;2.50;1.92;;;17.10;58.80;;;;;;5053555;28;20260;-77
2023/06/15 02:57:35;;;;;;;2.70;2.03;;;17.10;58.90;;;;;;5050961;28;20185;-77
2023/06/15 03:00:00;;;;;;;3.50;2.20;;;17.00;59.00;;;;;;5041368;28;20189;-77
2023/06/15 03:02:26;;;;;;;2.38;2.08;;;17.00;59.00;;;;;;5045564;28;20185;-77
2023/06/15 03:04:53;;;;;;;2.75;2.30;;;17.00;59.10;;;;;;5036617;28;20282;-72
2023/06/15 03:07:22;;;;;;;2.30;2.10;;;17.00;59.40;;;;;;5029750;28;20181;-77
2023/06/15 03:09:50;;;;;;;4.30;2.13;;;16.90;59.30;;;;;;5052924;28;20201;-77
2023/06/15 03:12:17;;;;;;;3.08;2.20;;;17.00;59.40;;;;;;5036705;28;20185;-74
2023/06/15 03:14:50;;;;;;;2.45;2.05;;;17.00;59.50;;;;;;5029239;28;20193;-77
2023/06/15 03:17:18;;;;;;;2.30;2.10;;;17.00;59.60;;;;;;5043357;28;20173;-74
2023/06/15 03:19:49;;;;;;;3.40;2.10;;;17.00;59.80;;;;;;5045080;28;20189;-72
2023/06/15 03:22:15;;;;;;;2.80;2.30;;;17.00;59.80;;;;;;5057180;28;20177;-77
2023/06/15 03:24:49;;;;;;;3.65;2.30;;;16.90;59.60;;;;;;5056285;28;20268;-73
2023/06/15 03:27:17;;;;;;;2.97;2.40;;;17.00;60.50;;;;;;5057484;28;20403;-76
2023/06/15 03:29:49;;;;;;;2.92;2.45;;;16.90;59.70;;;;;;5037599;28;20194;-77
2023/06/15 03:32:17;;;;;;;2.42;2.10;;;16.90;59.90;;;;;;5035585;28;20267;-76
2023/06/15 03:34:45;;;;;;;2.65;2.35;;;16.90;59.90;;;;;;5037363;28;20178;-77
2023/06/15 03:37:11;;;;;;;3.00;2.40;;;16.90;59.80;;;;;;5039988;28;20224;-77
2023/06/15 03:39:38;;;;;;;3.08;2.78;;;16.90;60.00;;;;;;5040493;28;20232;-76
2023/06/15 03:42:07;;;;;;;3.13;2.65;;;16.90;60.10;;;;;;5047739;28;20178;-77
2023/06/15 03:44:35;;;;;;;6.22;3.60;;;16.90;60.20;;;;;;5033814;28;20177;-77
2023/06/15 03:47:05;;;;;;;4.20;3.80;;;16.90;60.20;;;;;;5040683;28;20225;-76
2023/06/15 03:49:31;;;;;;;5.10;2.95;;;16.90;60.70;;;;;;5040395;28;20201;-73
2023/06/15 03:51:56;;;;;;;4.30;2.70;;;16.90;60.70;;;;;;5040763;28;20170;-78
2023/06/15 03:54:22;;;;;;;2.97;2.60;;;16.90;61.30;;;;;;5040442;28;20185;-77
2023/06/15 03:56:48;;;;;;;3.20;2.90;;;16.90;61.50;;;;;;5036819;28;20174;-77
2023/06/15 03:59:13;;;;;;;18.83;15.35;;;16.90;61.40;;;;;;5037120;28;20193;-76
2023/06/15 04:01:39;;;;;;;6.60;5.00;;;16.80;61.60;;;;;;5040109;28;20266;-78
2023/06/15 04:04:07;;;;;;;4.70;4.15;;;16.80;61.20;;;;;;5056999;28;20177;-74
2023/06/15 04:06:32;;;;;;;3.92;3.53;;;16.80;61.30;;;;;;5056732;28;20343;-77
2023/06/15 04:09:03;;;;;;;3.22;2.72;;;16.80;61.80;;;;;;5057031;28;20197;-77
2023/06/15 04:11:28;;;;;;;3.10;2.50;;;16.80;61.90;;;;;;5057127;28;20173;-77
2023/06/15 04:13:58;;;;;;;3.00;2.60;;;16.80;62.00;;;;;;5050628;28;20221;-77
2023/06/15 04:16:24;;;;;;;2.90;2.50;;;16.80;61.90;;;;;;5038396;28;20173;-76
2023/06/15 04:18:52;;;;;;;2.58;2.30;;;16.80;62.20;;;;;;5039846;28;20184;-72
2023/06/15 04:21:20;;;;;;;2.95;2.60;;;16.80;62.20;;;;;;5033367;28;20289;-73
2023/06/15 04:23:48;;;;;;;4.07;2.50;;;16.80;62.50;;;;;;5036269;28;20269;-75
2023/06/15 04:26:16;;;;;;;2.40;2.20;;;16.80;62.30;;;;;;5043022;28;20182;-76
2023/06/15 04:28:49;;;;;;;2.67;2.20;;;16.90;62.10;;;;;;5030312;28;20205;-77
2023/06/15 04:31:17;;;;;;;2.90;2.60;;;16.90;62.40;;;;;;5037609;28;20188;-77
2023/06/15 04:33:44;;;;;;;3.10;2.65;;;16.90;62.10;;;;;;5055396;28;20177;-77
2023/06/15 04:36:12;;;;;;;3.08;2.00;;;16.90;62.20;;;;;;5039446;28;20224;-77
2023/06/15 04:38:38;;;;;;;2.70;1.98;;;16.80;62.30;;;;;;5028472;28;20275;-78
2023/06/15 04:41:07;;;;;;;3.65;2.25;;;16.90;62.60;;;;;;5055893;28;20212;-77
2023/06/15 04:43:35;;;;;;;2.40;2.20;;;16.90;63.60;;;;;;5055371;28;20293;-78
2023/06/15 04:46:03;;;;;;;2.80;2.38;;;16.90;63.00;;;;;;5055774;28;20199;-77
2023/06/15 04:48:29;;;;;;;8.73;2.60;;;16.90;63.00;;;;;;5056090;28;20177;-79
2023/06/15 04:51:02;;;;;;;3.60;2.50;;;16.90;62.80;;;;;;5055544;28;20185;-77
2023/06/15 04:53:28;;;;;;;2.55;2.35;;;17.00;63.20;;;;;;5054857;28;20175;-77
2023/06/15 04:55:56;;;;;;;2.50;2.20;;;16.90;63.00;;;;;;5055786;28;20181;-78
2023/06/15 04:58:23;;;;;;;3.92;2.63;;;16.90;63.30;;;;;;5053082;28;20181;-78
2023/06/15 05:00:49;;;;;;;2.97;2.50;;;16.90;63.10;;;;;;5056562;28;20200;-76
2023/06/15 05:03:18;;;;;;;2.53;2.28;;;16.90;63.20;;;;;;5040710;28;20181;-79
2023/06/15 05:05:43;;;;;;;3.55;2.20;;;16.90;63.70;;;;;;5057737;28;20180;-78
2023/06/15 05:08:15;;;;;;;2.63;2.38;;;16.90;63.60;;;;;;5042012;28;20259;-77
2023/06/15 05:10:42;;;;;;;5.10;2.70;;;17.00;64.30;;;;;;5059002;28;20228;-78
2023/06/15 05:13:10;;;;;;;3.05;2.40;;;17.00;64.10;;;;;;5060540;28;20274;-78
2023/06/15 05:15:41;;;;;;;3.17;2.08;;;17.10;64.10;;;;;;5042236;28;20260;-77
2023/06/15 05:18:13;;;;;;;3.03;2.38;;;17.10;64.40;;;;;;5038371;28;20213;-75
2023/06/15 05:20:39;;;;;;;3.75;2.25;;;17.10;64.50;;;;;;5063016;28;20182;-75
2023/06/15 05:23:07;;;;;;;3.22;2.33;;;17.20;64.60;;;;;;5043674;28;20184;-75
2023/06/15 05:25:35;;;;;;;2.72;2.50;;;17.20;64.70;;;;;;5070730;28;20205;-70
2023/06/15 05:28:01;;;;;;;3.60;2.83;;;17.30;65.10;;;;;;5055507;28;20170;-73
2023/06/15 05:30:26;;;;;;;3.95;2.50;;;17.40;65.50;;;;;;5052398;28;20205;-78
2023/06/15 05:32:58;;;;;;;2.90;2.60;;;17.50;65.70;;;;;;5055311;28;20260;-78
2023/06/15 05:35:26;;;;;;;3.38;2.20;;;17.60;66.00;;;;;;5055064;28;20188;-75
2023/06/15 05:37:54;;;;;;;2.78;1.95;;;17.60;66.10;;;;;;5052474;28;20166;-79
2023/06/15 05:40:25;;;;;;;2.65;2.08;;;17.70;66.10;;;;;;5039444;28;20208;-78
2023/06/15 05:42:54;;;;;;;3.22;1.90;;;17.80;66.10;;;;;;5037159;28;20177;-77
2023/06/15 05:45:24;;;;;;;2.80;2.00;;;17.90;66.30;;;;;;5037899;28;20205;-78
2023/06/15 05:47:54;;;;;;;2.65;1.88;;;18.00;66.50;;;;;;5032381;28;20196;-78
2023/06/15 05:50:20;;;;;;;2.97;2.20;;;18.10;66.30;;;;;;5054559;28;20200;-75
2023/06/15 05:52:48;;;;;;;2.88;2.33;;;18.20;66.20;;;;;;5051033;28;20324;-78
2023/06/15 05:55:20;;;;;;;2.47;2.00;;;18.20;66.30;;;;;;5035443;28;20189;-77
2023/06/15 05:57:47;;;;;;;3.42;2.20;;;18.30;66.90;;;;;;5054718;28;20172;-77
2023/06/15 06:00:14;;;;;;;2.78;2.20;;;18.30;67.30;;;;;;5054580;28;20235;-76
2023/06/15 06:02:41;;;;;;;2.55;2.03;;;18.40;66.50;;;;;;5053840;28;20188;-77
2023/06/15 06:05:09;;;;;;;3.10;2.10;;;18.40;66.50;;;;;;5054542;28;20177;-75
2023/06/15 06:07:35;;;;;;;2.60;1.80;;;18.50;66.60;;;;;;5041148;28;20284;-77
2023/06/15 06:10:00;;;;;;;2.22;2.03;;;18.50;66.50;;;;;;5041643;28;20289;-76
2023/06/15 06:12:26;;;;;;;2.15;1.95;;;18.60;66.40;;;;;;5037531;28;20193;-77
2023/06/15 06:14:51;;;;;;;3.25;1.98;;;18.70;66.50;;;;;;5054147;28;20198;-77
2023/06/15 06:17:17;;;;;;;4.28;1.92;;;18.70;66.40;;;;;;5055096;28;20169;-77
2023/06/15 06:19:51;;;;;;;3.08;1.90;;;18.80;66.60;;;;;;5054238;28;20329;-77
2023/06/15 06:22:20;;;;;;;4.22;2.20;;;18.90;66.70;;;;;;5054215;28;20200;-76
2023/06/15 06:24:48;;;;;;;2.35;2.00;;;18.90;66.90;;;;;;5037633;28;20268;-72
2023/06/15 06:27:13;;;;;;;2.85;2.13;;;19.10;67.40;;;;;;5036871;28;20185;-78
2023/06/15 06:29:44;;;;;;;1.88;1.73;;;19.10;67.20;;;;;;5037097;28;20208;-78
2023/06/15 06:32:12;;;;;;;3.40;2.13;;;19.20;67.50;;;;;;5053215;28;20201;-76
2023/06/15 06:34:40;;;;;;;2.28;1.75;;;19.30;67.30;;;;;;5037494;28;20169;-78
2023/06/15 06:37:05;;;;;;;4.07;2.00;;;19.40;67.50;;;;;;5037419;28;20421;-70
2023/06/15 06:39:36;;;;;;;2.90;2.15;;;19.40;67.30;;;;;;5052296;28;20184;-67
2023/06/15 06:42:03;;;;;;;2.47;2.28;;;19.50;67.50;;;;;;5033388;28;20204;-69
2023/06/15 06:44:29;;;;;;;2.17;1.98;;;19.50;67.10;;;;;;5017515;28;20170;-69
2023/06/15 06:46:56;;;;;;;3.50;2.20;;;19.60;67.20;;;;;;5028848;28;20180;-70
2023/06/15 06:49:24;;;;;;;4.00;2.45;;;19.70;67.10;;;;;;5053088;28;20205;-71
2023/06/15 06:51:50;;;;;;;2.83;2.25;;;19.70;67.00;;;;;;5053424;28;20165;-69
2023/06/15 06:54:15;;;;;;;3.35;2.05;;;19.80;67.20;;;;;;5039269;28;20173;-70
2023/06/15 06:56:41;;;;;;;4.55;2.10;;;19.80;67.10;;;;;;5041379;28;20177;-72
2023/06/15 06:59:09;;;;;;;2.67;2.15;;;19.90;67.10;;;;;;5041569;28;20429;-70
2023/06/15 07:01:37;;;;;;;2.20;2.00;;;20.00;67.50;;;;;;5039484;28;20182;-70
2023/06/15 07:04:05;;;;;;;2.65;2.05;;;20.00;67.30;;;;;;5058578;28;20180;-70
2023/06/15 07:06:34;;;;;;;3.58;2.08;;;20.10;67.30;;;;;;5040844;28;20173;-71
2023/06/15 07:08:59;;;;;;;2.38;1.90;;;20.20;67.40;;;;;;5041006;28;20189;-70
2023/06/15 07:11:27;;;;;;;3.90;2.17;;;20.30;67.30;;;;;;5041193;28;20185;-71
2023/06/15 07:13:55;;;;;;;3.58;2.30;;;20.30;67.10;;;;;;5037443;28;20202;-71
2023/06/15 07:16:21;;;;;;;2.38;2.05;;;20.40;67.50;;;;;;5037379;28;20170;-70
2023/06/15 07:18:51;;;;;;;2.45;2.10;;;20.50;67.40;;;;;;5039236;28;20185;-70
2023/06/15 07:21:17;;;;;;;2.00;1.80;;;20.50;67.30;;;;;;5038626;28;20166;-71
2023/06/15 07:23:42;;;;;;;2.80;2.13;;;20.60;67.30;;;;;;5040900;28;20177;-69
2023/06/15 07:26:10;;;;;;;2.65;1.98;;;20.60;67.10;;;;;;5040279;28;20181;-68
2023/06/15 07:28:38;;;;;;;2.80;2.15;;;20.70;67.20;;;;;;5057614;28;20303;-69
2023/06/15 07:31:04;;;;;;;3.33;1.83;;;20.80;67.30;;;;;;5057261;28;20273;-68
2023/06/15 07:33:36;;;;;;;2.25;2.05;;;20.90;67.30;;;;;;5040785;28;20256;-70
2023/06/15 07:36:05;;;;;;;2.30;2.10;;;20.90;67.30;;;;;;5039797;28;20177;-71
2023/06/15 07:38:33;;;;;;;6.68;2.92;;;21.00;67.50;;;;;;5057377;28;20170;-69
2023/06/15 07:40:59;;;;;;;4.00;2.88;;;21.10;67.20;;;;;;5040054;28;20201;-71
2023/06/15 07:43:27;;;;;;;3.40;2.50;;;21.20;67.10;;;;;;5056928;28;20211;-69
2023/06/15 07:45:53;;;;;;;2.83;2.28;;;21.20;67.00;;;;;;5057735;28;20173;-69
2023/06/15 07:48:21;;;;;;;3.17;2.35;;;21.30;67.70;;;;;;5056457;28;20208;-69
2023/06/15 07:50:46;;;;;;;3.00;2.10;;;21.30;66.90;;;;;;5039892;28;20193;-69
2023/06/15 07:53:12;;;;;;;2.72;2.20;;;21.40;66.90;;;;;;5056798;28;20173;-69
2023/06/15 07:55:41;;;;;;;2.47;2.00;;;21.50;67.00;;;;;;5038335;28;20201;-70
2023/06/15 07:58:07;;;;;;;2.40;2.20;;;21.60;67.10;;;;;;5036847;28;20312;-69
2023/06/15 08:00:33;;;;;;;2.67;2.00;;;21.70;67.00;;;;;;5053110;28;20516;-70
2023/06/15 08:02:58;;;;;;;3.20;2.03;;;21.80;66.80;;;;;;5022418;28;20205;-69
2023/06/15 08:05:24;;;;;;;2.40;2.20;;;21.80;66.60;;;;;;5040060;28;20429;-69
2023/06/15 08:07:50;;;;;;;2.65;2.30;;;21.90;66.50;;;;;;5039544;28;20200;-70
2023/06/15 08:10:18;;;;;;;3.40;2.00;;;21.90;66.40;;;;;;5039491;28;20212;-69
2023/06/15 08:12:46;;;;;;;2.20;2.00;;;22.00;66.40;;;;;;5039735;28;20197;-70
2023/06/15 08:15:11;;;;;;;2.67;2.17;;;22.10;66.50;;;;;;5039879;28;20208;-70
2023/06/15 08:17:37;;;;;;;2.83;2.20;;;22.20;66.30;;;;;;5056412;28;20209;-70
2023/06/15 08:20:09;;;;;;;2.83;2.10;;;22.30;66.10;;;;;;5056389;28;20208;-71
2023/06/15 08:22:41;;;;;;;2.42;2.13;;;22.40;66.00;;;;;;5056648;28;20184;-68
2023/06/15 08:25:09;;;;;;;2.72;2.00;;;22.50;65.90;;;;;;5056576;28;20205;-70
2023/06/15 08:27:35;;;;;;;2.03;1.83;;;22.50;65.70;;;;;;5056462;28;20231;-69
2023/06/15 08:30:01;;;;;;;2.80;1.90;;;22.60;65.50;;;;;;5050704;28;20189;-70
2023/06/15 08:32:28;;;;;;;2.92;2.10;;;22.70;65.20;;;;;;5039288;28;20223;-68
2023/06/15 08:34:56;;;;;;;2.55;2.05;;;22.80;65.00;;;;;;5038902;28;20178;-70
2023/06/15 08:37:27;;;;;;;2.60;2.05;;;22.90;65.00;;;;;;5055658;28;20188;-70
2023/06/15 08:39:52;;;;;;;3.45;2.30;;;22.90;64.80;;;;;;5038772;28;20165;-70
2023/06/15 08:42:21;;;;;;;2.58;2.38;;;23.00;64.80;;;;;;5039377;28;20236;-68
2023/06/15 08:44:50;;;;;;;2.42;1.92;;;23.10;64.20;;;;;;5035584;28;20209;-70
2023/06/15 08:47:16;;;;;;;3.00;1.90;;;23.20;64.00;;;;;;5042571;28;20260;-70
2023/06/15 08:49:46;;;;;;;2.42;2.22;;;23.30;64.00;;;;;;5055621;28;20205;-71
2023/06/15 08:52:13;;;;;;;4.95;2.10;;;23.40;63.50;;;;;;5055555;28;20198;-70
2023/06/15 08:54:42;;;;;;;4.55;2.60;;;23.40;63.40;;;;;;5056062;28;20254;-70
2023/06/15 08:57:08;;;;;;;2.63;2.10;;;23.50;63.20;;;;;;5055655;28;20260;-69
2023/06/15 08:59:34;;;;;;;3.85;2.28;;;23.60;63.20;;;;;;5039259;28;20177;-69
2023/06/15 09:02:06;;;;;;;3.55;2.20;;;23.70;63.10;;;;;;5039206;28;20189;-69
2023/06/15 09:04:32;;;;;;;2.45;2.13;;;23.70;62.60;;;;;;5055570;28;20188;-70
2023/06/15 09:07:01;;;;;;;4.78;2.40;;;23.80;62.40;;;;;;5055860;28;20197;-70
2023/06/15 09:09:29;;;;;;;4.47;2.10;;;23.90;62.00;;;;;;5038232;28;20403;-69
2023/06/15 09:11:57;;;;;;;3.97;2.00;;;23.90;61.40;;;;;;5055571;28;20209;-68
2023/06/15 09:14:25;;;;;;;2.50;2.30;;;23.90;61.50;;;;;;5038479;28;20169;-71
2023/06/15 09:16:50;;;;;;;3.97;2.30;;;23.90;61.40;;;;;;5054829;28;20176;-70
2023/06/15 09:19:16;;;;;;;3.53;1.90;;;24.00;61.00;;;;;;5035170;28;20206;-71
2023/06/15 09:21:53;;;;;;;4.25;2.30;;;24.10;61.00;;;;;;5038566;28;20188;-71
2023/06/15 09:24:22;;;;;;;4.63;2.45;;;24.20;59.70;;;;;;5038792;28;20271;-70
2023/06/15 09:26:50;;;;;;;4.18;2.38;;;24.30;60.00;;;;;;5037501;28;20169;-71
2023/06/15 09:29:18;;;;;;;2.40;2.20;;;24.40;59.90;;;;;;5055277;28;20233;-70
2023/06/15 09:31:44;;;;;;;2.60;2.17;;;24.50;59.80;;;;;;5054345;28;20189;-68
2023/06/15 09:34:11;;;;;;;2.67;2.40;;;24.70;59.50;;;;;;5055453;28;20169;-69
2023/06/15 09:36:44;;;;;;;2.70;1.90;;;24.80;58.40;;;;;;5038385;28;20238;-70
2023/06/15 09:39:12;;;;;;;3.47;2.20;;;24.90;57.90;;;;;;5054774;28;20197;-69
2023/06/15 09:41:54;;;;;;;2.45;2.10;;;25.00;57.80;;;;;;5054420;28;20169;-69
2023/06/15 09:44:23;;;;;;;3.45;1.83;;;25.10;56.70;;;;;;5038171;28;20177;-70
2023/06/15 09:46:51;;;;;;;3.92;1.98;;;25.20;57.60;;;;;;5054972;28;20185;-69
2023/06/15 09:49:26;;;;;;;2.92;2.03;;;25.20;57.80;;;;;;5050689;28;20202;-69
2023/06/15 09:51:55;;;;;;;2.20;1.90;;;25.40;57.40;;;;;;5038119;28;20173;-70
2023/06/15 09:54:33;;;;;;;3.38;2.17;;;25.50;57.50;;;;;;5054436;28;20170;-69
2023/06/15 09:57:01;;;;;;;2.65;2.15;;;25.60;56.60;;;;;;5050690;28;20208;-69
2023/06/15 09:59:26;;;;;;;2.10;1.80;;;25.70;56.70;;;;;;5018264;28;20221;-69
2023/06/15 10:01:55;;;;;;;2.85;2.20;;;25.80;56.80;;;;;;5031521;28;20225;-70
2023/06/15 10:04:30;;;;;;;3.08;2.20;;;25.90;56.30;;;;;;5054498;28;20188;-68
2023/06/15 10:07:01;;;;;;;2.75;2.20;;;26.10;56.00;;;;;;5052930;28;20197;-70
2023/06/15 10:09:28;;;;;;;2.40;2.20;;;26.10;55.60;;;;;;5054546;28;20186;-69
2023/06/15 10:12:01;;;;;;;2.33;2.08;;;26.20;55.60;;;;;;5039632;28;20177;-69
2023/06/15 10:14:37;;;;;;;5.60;2.20;;;26.20;55.10;;;;;;5054549;28;20184;-66
2023/06/15 10:17:06;;;;;;;2.63;2.05;;;26.30;54.50;;;;;;5037670;28;20153;-69
2023/06/15 10:19:38;;;;;;;4.20;2.40;;;26.30;55.00;;;;;;5037347;28;20511;-69
2023/06/15 10:22:08;;;;;;;2.30;2.10;;;26.40;54.70;;;;;;5037103;28;20177;-67
2023/06/15 10:24:36;;;;;;;4.70;2.20;;;26.50;54.80;;;;;;5037516;28;20177;-68
2023/06/15 10:27:03;;;;;;;2.97;2.13;;;26.50;54.90;;;;;;5037593;28;20201;-68
2023/06/15 10:29:36;;;;;;;2.45;2.08;;;26.60;54.90;;;;;;5053651;28;20188;-68
2023/06/15 10:32:36;;;;;;;2.75;2.17;;;26.80;54.50;;;;;;5054289;28;20176;-67
2023/06/15 10:35:33;;;;;;;2.55;2.10;;;26.90;53.00;;;;;;5037457;28;20232;-68
2023/06/15 10:38:17;;;;;;;3.45;2.10;;;27.20;53.80;;;;;;5054160;28;20160;-66
2023/06/15 10:40:50;;;;;;;4.22;2.35;;;27.40;54.40;;;;;;5054148;28;20201;-68
2023/06/15 10:43:27;;;;;;;2.80;2.30;;;27.60;54.60;;;;;;5037578;28;20165;-69
2023/06/15 10:45:53;;;;;;;3.28;2.55;;;27.80;53.30;;;;;;5033854;28;20224;-68
2023/06/15 10:48:29;;;;;;;3.72;2.25;;;28.10;51.80;;;;;;5034083;28;20193;-68
2023/06/15 10:51:06;;;;;;;2.45;2.20;;;28.30;51.30;;;;;;5017679;28;20344;-68
2023/06/15 10:53:40;;;;;;;4.88;2.50;;;28.30;50.20;;;;;;5017155;28;20193;-68
2023/06/15 10:56:19;;;;;;;2.83;2.30;;;28.40;51.00;;;;;;5034132;28;20165;-69
2023/06/15 10:58:57;;;;;;;2.20;2.00;;;28.50;50.70;;;;;;5034000;28;20367;-69
2023/06/15 11:01:28;;;;;;;5.28;2.13;;;28.60;50.50;;;;;;5040586;28;20231;-68
2023/06/15 11:03:55;;;;;;;2.45;2.10;;;28.70;51.10;;;;;;5053735;28;20173;-68
2023/06/15 11:06:41;;;;;;;3.65;2.17;;;28.70;50.50;;;;;;5036481;28;20173;-69
2023/06/15 11:09:12;;;;;;;3.70;2.50;;;28.70;49.50;;;;;;5037096;28;20300;-69
2023/06/15 11:11:42;;;;;;;2.58;2.20;;;28.80;49.60;;;;;;5064372;28;20185;-68
2023/06/15 11:14:31;;;;;;;2.60;2.38;;;28.90;50.70;;;;;;5070656;28;20203;-70
2023/06/15 11:17:05;;;;;;;2.42;2.20;;;29.00;49.00;;;;;;5068357;28;20213;-69
2023/06/15 11:19:39;;;;;;;3.00;1.90;;;29.00;49.90;;;;;;5053603;28;20189;-69
2023/06/15 11:22:06;;;;;;;2.42;2.05;;;29.10;50.00;;;;;;5070438;28;20346;-68
2023/06/15 11:24:39;;;;;;;3.47;2.05;;;29.10;49.20;;;;;;5056881;28;20238;-69
2023/06/15 11:27:09;;;;;;;2.78;1.98;;;28.90;48.40;;;;;;5053867;28;20410;-69
2023/06/15 11:29:41;;;;;;;2.90;2.10;;;28.80;48.80;;;;;;5054332;28;20189;-70
2023/06/15 11:32:10;;;;;;;3.33;1.80;;;28.70;48.30;;;;;;5053470;28;20184;-67
2023/06/15 11:34:40;;;;;;;2.13;1.92;;;28.60;48.20;;;;;;5036743;28;20197;-68
2023/06/15 11:37:12;;;;;;;3.35;2.42;;;28.50;48.30;;;;;;5033022;28;20185;-69
2023/06/15 11:39:42;;;;;;;2.30;2.10;;;28.30;48.10;;;;;;5055509;28;20199;-68
2023/06/15 11:42:08;;;;;;;3.65;2.25;;;28.30;48.20;;;;;;5056960;28;20177;-69
2023/06/15 11:44:41;;;;;;;4.85;3.00;;;28.20;48.20;;;;;;5056632;28;20185;-69
2023/06/15 11:47:13;;;;;;;3.22;2.20;;;28.10;48.10;;;;;;5056638;28;20209;-69
2023/06/15 11:49:41;;;;;;;4.68;3.00;;;28.10;48.10;;;;;;5057490;28;20197;-69
2023/06/15 11:52:07;;;;;;;4.20;2.38;;;28.10;48.30;;;;;;5040120;28;20232;-69
2023/06/15 11:54:35;;;;;;;2.42;2.22;;;28.10;48.30;;;;;;5056843;28;20198;-68
2023/06/15 11:57:01;;;;;;;3.33;2.00;;;28.20;48.10;;;;;;5057012;28;20299;-69
2023/06/15 11:59:27;;;;;;;3.42;2.22;;;28.30;48.80;;;;;;5051150;28;20178;-68
2023/06/15 12:01:57;;;;;;;2.50;1.98;;;28.50;49.30;;;;;;5039881;28;20209;-69
2023/06/15 12:04:25;;;;;;;2.85;2.17;;;28.90;49.00;;;;;;5040237;28;20192;-68
2023/06/15 12:06:56;;;;;;;4.75;2.17;;;29.20;49.00;;;;;;5019978;28;20169;-68
2023/06/15 12:09:23;;;;;;;2.33;2.00;;;29.50;48.60;;;;;;5033730;28;20223;-69
2023/06/15 12:11:49;;;;;;;2.95;2.00;;;29.80;48.40;;;;;;5056277;28;20169;-69
2023/06/15 12:14:20;;;;;;;2.38;2.10;;;30.10;48.40;;;;;;5056540;28;20193;-70
2023/06/15 12:16:51;;;;;;;2.67;2.30;;;30.30;47.90;;;;;;5057067;28;20267;-71
2023/06/15 12:19:20;;;;;;;4.50;1.92;;;30.60;47.20;;;;;;5039935;28;20200;-69
2023/06/15 12:21:46;;;;;;;2.25;2.05;;;30.90;47.40;;;;;;5039507;28;20201;-70
2023/06/15 12:24:13;;;;;;;2.30;2.10;;;31.00;46.90;;;;;;5055906;28;20173;-69
2023/06/15 12:26:51;;;;;;;2.70;1.80;;;31.20;46.50;;;;;;5056017;28;20264;-70
2023/06/15 12:29:19;;;;;;;2.53;1.95;;;31.50;45.50;;;;;;5055513;28;20215;-72
2023/06/15 12:31:49;;;;;;;3.42;1.80;;;31.70;46.30;;;;;;5056012;28;20176;-69
2023/06/15 12:34:20;;;;;;;3.50;2.05;;;32.00;44.10;;;;;;5039014;28;20179;-68
2023/06/15 12:36:48;;;;;;;3.85;1.92;;;32.10;44.20;;;;;;5039084;28;20260;-69
2023/06/15 12:39:14;;;;;;;3.83;2.00;;;32.10;43.70;;;;;;5056561;28;20180;-71
2023/06/15 12:41:43;;;;;;;2.17;1.80;;;32.00;43.70;;;;;;5055894;28;20196;-69
2023/06/15 12:44:10;;;;;;;2.88;1.90;;;31.90;43.20;;;;;;5056019;28;20399;-71
2023/06/15 12:46:38;;;;;;;2.78;1.88;;;31.80;43.20;;;;;;5038994;28;20268;-69
2023/06/15 12:49:05;;;;;;;3.15;1.90;;;31.60;42.60;;;;;;5039260;28;20208;-71
2023/06/15 12:51:30;;;;;;;3.25;1.98;;;31.40;42.30;;;;;;5039068;28;20187;-70
2023/06/15 12:54:01;;;;;;;3.55;2.17;;;31.20;42.50;;;;;;5055986;28;20189;-68
2023/06/15 12:56:40;;;;;;;2.70;2.47;;;31.10;42.60;;;;;;5055804;28;20201;-71